sensor_id;sensor_type;location;lat;lon;timestamp;P1;durP1;ratioP1;P2;durP2;ratioP2
20122;SDS011;10222;50.848;4.336;2023-02-15T00:01:43;35.03;;;16.83;;
20122;SDS011;10222;50.848;4.336;2023-02-15T00:04:12;31.77;;;15.77;;
20122;SDS011;10222;50.848;4.336;2023-02-15T00:06:39;33.60;;;16.27;;
20122;SDS011;10222;50.848;4.336;2023-02-15T00:09:11;37.37;;;17.03;;
20122;SDS011;10222;50.848;4.336;2023-02-15T00:11:38;35.20;;;15.07;;
20122;SDS011;10222;50.848;4.336;2023-02-15T00:14:09;36.30;;;17.13;;
20122;SDS011;10222;50.848;4.336;2023-02-15T00:16:38;38.90;;;19.90;;
20122;SDS011;10222;50.848;4.336;2023-02-15T00:21:34;53.50;;;19.60;;
20122;SDS011;10222;50.848;4.336;2023-02-15T00:24:03;38.00;;;18.10;;
20122;SDS011;10222;50.848;4.336;2023-02-15T00:26:33;31.00;;;17.37;;
20122;SDS011;10222;50.848;4.336;2023-02-15T00:29:01;29.67;;;15.37;;
20122;SDS011;10222;50.848;4.336;2023-02-15T00:31:30;37.03;;;17.40;;
20122;SDS011;10222;50.848;4.336;2023-02-15T00:34:03;33.57;;;16.73;;
20122;SDS011;10222;50.848;4.336;2023-02-15T00:36:30;37.50;;;17.37;;
20122;SDS011;10222;50.848;4.336;2023-02-15T00:38:57;34.30;;;17.23;;
20122;SDS011;10222;50.848;4.336;2023-02-15T00:41:26;38.07;;;18.17;;
20122;SDS011;10222;50.848;4.336;2023-02-15T00:43:53;41.53;;;18.20;;
20122;SDS011;10222;50.848;4.336;2023-02-15T00:46:22;36.17;;;17.47;;
20122;SDS011;10222;50.848;4.336;2023-02-15T00:48:48;37.67;;;17.20;;
20122;SDS011;10222;50.848;4.336;2023-02-15T00:51:17;32.97;;;15.53;;
20122;SDS011;10222;50.848;4.336;2023-02-15T00:53:43;28.70;;;15.93;;
20122;SDS011;10222;50.848;4.336;2023-02-15T00:56:10;33.57;;;16.67;;
20122;SDS011;10222;50.848;4.336;2023-02-15T00:58:36;33.80;;;15.00;;
20122;SDS011;10222;50.848;4.336;2023-02-15T01:01:04;30.73;;;15.63;;
20122;SDS011;10222;50.848;4.336;2023-02-15T01:03:32;29.93;;;15.40;;
20122;SDS011;10222;50.848;4.336;2023-02-15T01:06:00;31.80;;;15.80;;
20122;SDS011;10222;50.848;4.336;2023-02-15T01:08:29;33.83;;;16.67;;
20122;SDS011;10222;50.848;4.336;2023-02-15T01:10:55;33.93;;;16.63;;
20122;SDS011;10222;50.848;4.336;2023-02-15T01:13:24;33.57;;;14.97;;
20122;SDS011;10222;50.848;4.336;2023-02-15T01:15:53;34.23;;;15.63;;
20122;SDS011;10222;50.848;4.336;2023-02-15T01:18:21;31.10;;;16.10;;
20122;SDS011;10222;50.848;4.336;2023-02-15T01:20:48;35.67;;;17.43;;
20122;SDS011;10222;50.848;4.336;2023-02-15T01:23:14;32.53;;;15.50;;
20122;SDS011;10222;50.848;4.336;2023-02-15T01:25:41;28.67;;;13.67;;
20122;SDS011;10222;50.848;4.336;2023-02-15T01:28:08;33.97;;;14.97;;
20122;SDS011;10222;50.848;4.336;2023-02-15T01:30:36;28.70;;;15.07;;
20122;SDS011;10222;50.848;4.336;2023-02-15T01:33:03;34.93;;;14.83;;
20122;SDS011;10222;50.848;4.336;2023-02-15T01:35:30;31.27;;;16.17;;
20122;SDS011;10222;50.848;4.336;2023-02-15T01:37:56;28.37;;;13.93;;
20122;SDS011;10222;50.848;4.336;2023-02-15T01:40:25;30.33;;;15.20;;
20122;SDS011;10222;50.848;4.336;2023-02-15T01:42:51;28.47;;;14.63;;
20122;SDS011;10222;50.848;4.336;2023-02-15T01:45:21;27.23;;;14.33;;
20122;SDS011;10222;50.848;4.336;2023-02-15T01:48:33;37.17;;;16.30;;
20122;SDS011;10222;50.848;4.336;2023-02-15T01:50:37;30.90;;;14.10;;
20122;SDS011;10222;50.848;4.336;2023-02-15T01:55:39;43.23;;;17.70;;
20122;SDS011;10222;50.848;4.336;2023-02-15T01:58:06;29.37;;;13.60;;
20122;SDS011;10222;50.848;4.336;2023-02-15T02:00:32;27.63;;;14.40;;
20122;SDS011;10222;50.848;4.336;2023-02-15T02:03:00;32.47;;;15.50;;
20122;SDS011;10222;50.848;4.336;2023-02-15T02:05:28;32.33;;;15.63;;
20122;SDS011;10222;50.848;4.336;2023-02-15T02:07:56;31.50;;;15.87;;
20122;SDS011;10222;50.848;4.336;2023-02-15T02:10:22;29.67;;;15.30;;
20122;SDS011;10222;50.848;4.336;2023-02-15T02:12:49;34.43;;;16.83;;
20122;SDS011;10222;50.848;4.336;2023-02-15T02:15:16;29.23;;;15.03;;
20122;SDS011;10222;50.848;4.336;2023-02-15T02:31:14;33.43;;;15.77;;
20122;SDS011;10222;50.848;4.336;2023-02-15T02:33:58;34.27;;;15.53;;
20122;SDS011;10222;50.848;4.336;2023-02-15T02:39:02;36.07;;;17.07;;
20122;SDS011;10222;50.848;4.336;2023-02-15T02:46:32;36.23;;;16.77;;
20122;SDS011;10222;50.848;4.336;2023-02-15T02:49:00;33.67;;;15.77;;
20122;SDS011;10222;50.848;4.336;2023-02-15T02:51:28;38.17;;;16.10;;
20122;SDS011;10222;50.848;4.336;2023-02-15T02:53:55;32.77;;;15.27;;
20122;SDS011;10222;50.848;4.336;2023-02-15T02:59:06;26.00;;;14.40;;
20122;SDS011;10222;50.848;4.336;2023-02-15T03:04:07;28.13;;;14.10;;
20122;SDS011;10222;50.848;4.336;2023-02-15T03:06:43;30.40;;;13.83;;
20122;SDS011;10222;50.848;4.336;2023-02-15T03:11:42;29.73;;;14.83;;
20122;SDS011;10222;50.848;4.336;2023-02-15T03:14:10;31.40;;;14.57;;
20122;SDS011;10222;50.848;4.336;2023-02-15T03:16:37;30.70;;;14.07;;
20122;SDS011;10222;50.848;4.336;2023-02-15T03:19:15;30.73;;;14.83;;
20122;SDS011;10222;50.848;4.336;2023-02-15T03:21:50;25.30;;;13.43;;
20122;SDS011;10222;50.848;4.336;2023-02-15T03:24:25;23.33;;;12.43;;
20122;SDS011;10222;50.848;4.336;2023-02-15T03:29:23;29.80;;;15.33;;
20122;SDS011;10222;50.848;4.336;2023-02-15T03:34:20;27.17;;;14.47;;
20122;SDS011;10222;50.848;4.336;2023-02-15T03:44:35;27.87;;;13.57;;
20122;SDS011;10222;50.848;4.336;2023-02-15T03:47:05;30.40;;;14.20;;
20122;SDS011;10222;50.848;4.336;2023-02-15T03:54:51;25.27;;;14.73;;
20122;SDS011;10222;50.848;4.336;2023-02-15T04:05:31;30.50;;;14.47;;
20122;SDS011;10222;50.848;4.336;2023-02-15T04:07:59;23.53;;;13.07;;
20122;SDS011;10222;50.848;4.336;2023-02-15T04:10:26;26.23;;;11.97;;
20122;SDS011;10222;50.848;4.336;2023-02-15T04:13:12;28.53;;;14.00;;
20122;SDS011;10222;50.848;4.336;2023-02-15T04:15:39;31.77;;;14.73;;
20122;SDS011;10222;50.848;4.336;2023-02-15T04:18:24;25.97;;;13.73;;
20122;SDS011;10222;50.848;4.336;2023-02-15T04:21:12;21.33;;;12.37;;
20122;SDS011;10222;50.848;4.336;2023-02-15T04:23:56;23.77;;;12.50;;
20122;SDS011;10222;50.848;4.336;2023-02-15T04:26:41;26.70;;;12.87;;
20122;SDS011;10222;50.848;4.336;2023-02-15T04:29:09;27.43;;;13.23;;
20122;SDS011;10222;50.848;4.336;2023-02-15T04:31:35;23.60;;;13.00;;
20122;SDS011;10222;50.848;4.336;2023-02-15T04:34:02;29.77;;;14.43;;
20122;SDS011;10222;50.848;4.336;2023-02-15T04:36:29;27.17;;;14.07;;
20122;SDS011;10222;50.848;4.336;2023-02-15T04:38:58;32.73;;;12.67;;
20122;SDS011;10222;50.848;4.336;2023-02-15T04:41:27;27.37;;;14.00;;
20122;SDS011;10222;50.848;4.336;2023-02-15T04:43:53;29.03;;;14.63;;
20122;SDS011;10222;50.848;4.336;2023-02-15T04:46:20;35.93;;;17.20;;
20122;SDS011;10222;50.848;4.336;2023-02-15T04:48:46;29.03;;;14.40;;
20122;SDS011;10222;50.848;4.336;2023-02-15T04:51:13;31.23;;;14.77;;
20122;SDS011;10222;50.848;4.336;2023-02-15T04:53:41;36.97;;;15.40;;
20122;SDS011;10222;50.848;4.336;2023-02-15T04:56:07;33.07;;;13.57;;
20122;SDS011;10222;50.848;4.336;2023-02-15T05:01:07;30.80;;;14.10;;
20122;SDS011;10222;50.848;4.336;2023-02-15T05:03:33;31.93;;;14.33;;
20122;SDS011;10222;50.848;4.336;2023-02-15T05:05:59;29.13;;;15.37;;
20122;SDS011;10222;50.848;4.336;2023-02-15T05:08:25;32.93;;;14.87;;
20122;SDS011;10222;50.848;4.336;2023-02-15T05:10:53;28.03;;;12.23;;
20122;SDS011;10222;50.848;4.336;2023-02-15T05:13:20;27.40;;;13.30;;
20122;SDS011;10222;50.848;4.336;2023-02-15T05:15:50;30.83;;;13.67;;
20122;SDS011;10222;50.848;4.336;2023-02-15T05:18:16;26.80;;;13.27;;
20122;SDS011;10222;50.848;4.336;2023-02-15T05:20:43;30.70;;;14.27;;
20122;SDS011;10222;50.848;4.336;2023-02-15T05:23:10;26.03;;;13.37;;
20122;SDS011;10222;50.848;4.336;2023-02-15T05:25:36;31.63;;;12.50;;
20122;SDS011;10222;50.848;4.336;2023-02-15T05:28:22;28.30;;;13.17;;
20122;SDS011;10222;50.848;4.336;2023-02-15T05:33:19;25.87;;;12.30;;
20122;SDS011;10222;50.848;4.336;2023-02-15T05:35:47;24.83;;;13.47;;
20122;SDS011;10222;50.848;4.336;2023-02-15T05:38:13;30.40;;;13.47;;
20122;SDS011;10222;50.848;4.336;2023-02-15T05:40:39;28.97;;;14.13;;
20122;SDS011;10222;50.848;4.336;2023-02-15T05:43:07;26.10;;;12.67;;
20122;SDS011;10222;50.848;4.336;2023-02-15T05:45:34;22.50;;;12.03;;
20122;SDS011;10222;50.848;4.336;2023-02-15T05:50:30;27.10;;;14.80;;
20122;SDS011;10222;50.848;4.336;2023-02-15T05:52:56;30.33;;;14.13;;
20122;SDS011;10222;50.848;4.336;2023-02-15T05:55:26;29.33;;;14.33;;
20122;SDS011;10222;50.848;4.336;2023-02-15T05:57:52;28.60;;;12.83;;
20122;SDS011;10222;50.848;4.336;2023-02-15T06:00:22;28.53;;;14.37;;
20122;SDS011;10222;50.848;4.336;2023-02-15T06:02:49;32.53;;;14.17;;
20122;SDS011;10222;50.848;4.336;2023-02-15T06:05:15;25.20;;;13.50;;
20122;SDS011;10222;50.848;4.336;2023-02-15T06:07:45;29.00;;;13.37;;
20122;SDS011;10222;50.848;4.336;2023-02-15T06:10:12;32.43;;;13.17;;
20122;SDS011;10222;50.848;4.336;2023-02-15T06:12:39;34.37;;;13.70;;
20122;SDS011;10222;50.848;4.336;2023-02-15T06:15:11;30.23;;;13.70;;
20122;SDS011;10222;50.848;4.336;2023-02-15T06:17:40;26.87;;;13.90;;
20122;SDS011;10222;50.848;4.336;2023-02-15T06:20:06;30.17;;;13.90;;
20122;SDS011;10222;50.848;4.336;2023-02-15T06:22:34;30.87;;;13.10;;
20122;SDS011;10222;50.848;4.336;2023-02-15T06:27:32;28.57;;;14.23;;
20122;SDS011;10222;50.848;4.336;2023-02-15T06:30:05;24.03;;;12.63;;
20122;SDS011;10222;50.848;4.336;2023-02-15T06:32:32;23.27;;;12.00;;
20122;SDS011;10222;50.848;4.336;2023-02-15T06:34:59;29.13;;;12.97;;
20122;SDS011;10222;50.848;4.336;2023-02-15T06:37:25;23.10;;;11.83;;
20122;SDS011;10222;50.848;4.336;2023-02-15T06:42:21;31.00;;;14.20;;
20122;SDS011;10222;50.848;4.336;2023-02-15T06:44:49;27.97;;;14.30;;
20122;SDS011;10222;50.848;4.336;2023-02-15T06:47:15;29.70;;;13.83;;
20122;SDS011;10222;50.848;4.336;2023-02-15T06:49:42;29.80;;;15.13;;
20122;SDS011;10222;50.848;4.336;2023-02-15T06:52:09;33.10;;;14.30;;
20122;SDS011;10222;50.848;4.336;2023-02-15T06:54:35;28.93;;;14.10;;
20122;SDS011;10222;50.848;4.336;2023-02-15T06:57:01;33.13;;;14.50;;
20122;SDS011;10222;50.848;4.336;2023-02-15T06:59:27;34.13;;;14.00;;
20122;SDS011;10222;50.848;4.336;2023-02-15T07:01:54;30.80;;;14.20;;
20122;SDS011;10222;50.848;4.336;2023-02-15T07:04:21;23.93;;;11.50;;
20122;SDS011;10222;50.848;4.336;2023-02-15T07:06:48;34.60;;;14.97;;
20122;SDS011;10222;50.848;4.336;2023-02-15T07:09:15;31.37;;;14.60;;
20122;SDS011;10222;50.848;4.336;2023-02-15T07:11:41;28.87;;;13.37;;
20122;SDS011;10222;50.848;4.336;2023-02-15T07:14:28;37.43;;;14.13;;
20122;SDS011;10222;50.848;4.336;2023-02-15T07:16:56;31.40;;;15.43;;
20122;SDS011;10222;50.848;4.336;2023-02-15T07:19:23;28.07;;;13.87;;
20122;SDS011;10222;50.848;4.336;2023-02-15T07:21:50;32.90;;;15.17;;
20122;SDS011;10222;50.848;4.336;2023-02-15T07:24:16;27.13;;;13.23;;
20122;SDS011;10222;50.848;4.336;2023-02-15T07:26:43;28.77;;;14.17;;
20122;SDS011;10222;50.848;4.336;2023-02-15T07:29:10;36.20;;;13.60;;
20122;SDS011;10222;50.848;4.336;2023-02-15T07:31:37;30.00;;;14.13;;
20122;SDS011;10222;50.848;4.336;2023-02-15T07:34:05;36.07;;;15.17;;
20122;SDS011;10222;50.848;4.336;2023-02-15T07:36:31;31.53;;;14.90;;
20122;SDS011;10222;50.848;4.336;2023-02-15T07:38:57;32.93;;;15.10;;
20122;SDS011;10222;50.848;4.336;2023-02-15T07:41:24;31.17;;;14.73;;
20122;SDS011;10222;50.848;4.336;2023-02-15T07:43:50;33.77;;;15.17;;
20122;SDS011;10222;50.848;4.336;2023-02-15T07:46:16;36.30;;;14.50;;
20122;SDS011;10222;50.848;4.336;2023-02-15T07:48:44;35.77;;;14.23;;
20122;SDS011;10222;50.848;4.336;2023-02-15T07:51:12;32.13;;;15.27;;
20122;SDS011;10222;50.848;4.336;2023-02-15T07:53:39;30.07;;;13.90;;
20122;SDS011;10222;50.848;4.336;2023-02-15T07:56:10;32.37;;;14.53;;
20122;SDS011;10222;50.848;4.336;2023-02-15T07:58:36;31.40;;;14.70;;
20122;SDS011;10222;50.848;4.336;2023-02-15T08:03:51;36.53;;;14.83;;
20122;SDS011;10222;50.848;4.336;2023-02-15T08:06:18;34.27;;;15.83;;
20122;SDS011;10222;50.848;4.336;2023-02-15T08:08:45;37.67;;;16.17;;
20122;SDS011;10222;50.848;4.336;2023-02-15T08:13:57;30.87;;;15.43;;
20122;SDS011;10222;50.848;4.336;2023-02-15T08:16:35;33.27;;;14.93;;
20122;SDS011;10222;50.848;4.336;2023-02-15T08:19:06;33.07;;;14.83;;
20122;SDS011;10222;50.848;4.336;2023-02-15T08:21:34;34.03;;;15.57;;
20122;SDS011;10222;50.848;4.336;2023-02-15T08:24:02;34.57;;;16.17;;
20122;SDS011;10222;50.848;4.336;2023-02-15T08:26:29;28.27;;;14.40;;
20122;SDS011;10222;50.848;4.336;2023-02-15T08:28:55;36.63;;;13.23;;
20122;SDS011;10222;50.848;4.336;2023-02-15T08:31:23;27.50;;;12.93;;
20122;SDS011;10222;50.848;4.336;2023-02-15T08:33:49;31.87;;;15.23;;
20122;SDS011;10222;50.848;4.336;2023-02-15T08:36:17;37.07;;;15.47;;
20122;SDS011;10222;50.848;4.336;2023-02-15T08:38:45;34.33;;;16.33;;
20122;SDS011;10222;50.848;4.336;2023-02-15T08:41:16;36.87;;;15.93;;
20122;SDS011;10222;50.848;4.336;2023-02-15T08:43:46;35.83;;;15.37;;
20122;SDS011;10222;50.848;4.336;2023-02-15T08:46:13;34.13;;;14.63;;
20122;SDS011;10222;50.848;4.336;2023-02-15T08:48:39;33.23;;;15.03;;
20122;SDS011;10222;50.848;4.336;2023-02-15T08:51:07;34.37;;;14.27;;
20122;SDS011;10222;50.848;4.336;2023-02-15T08:53:34;30.83;;;15.87;;
20122;SDS011;10222;50.848;4.336;2023-02-15T08:56:00;30.20;;;14.43;;
20122;SDS011;10222;50.848;4.336;2023-02-15T08:58:26;28.70;;;14.33;;
20122;SDS011;10222;50.848;4.336;2023-02-15T09:00:54;35.70;;;14.43;;
20122;SDS011;10222;50.848;4.336;2023-02-15T09:03:21;30.20;;;14.70;;
20122;SDS011;10222;50.848;4.336;2023-02-15T09:05:48;34.43;;;14.77;;
20122;SDS011;10222;50.848;4.336;2023-02-15T09:08:14;37.43;;;16.03;;
20122;SDS011;10222;50.848;4.336;2023-02-15T09:10:40;29.40;;;14.60;;
20122;SDS011;10222;50.848;4.336;2023-02-15T09:13:07;30.40;;;14.03;;
20122;SDS011;10222;50.848;4.336;2023-02-15T09:15:33;31.47;;;14.37;;
20122;SDS011;10222;50.848;4.336;2023-02-15T09:17:59;31.90;;;14.80;;
20122;SDS011;10222;50.848;4.336;2023-02-15T09:20:30;36.20;;;13.63;;
20122;SDS011;10222;50.848;4.336;2023-02-15T09:22:59;34.63;;;13.70;;
20122;SDS011;10222;50.848;4.336;2023-02-15T09:25:26;29.70;;;13.13;;
20122;SDS011;10222;50.848;4.336;2023-02-15T09:27:54;29.37;;;13.13;;
20122;SDS011;10222;50.848;4.336;2023-02-15T09:30:21;28.73;;;13.93;;
20122;SDS011;10222;50.848;4.336;2023-02-15T09:32:48;32.53;;;14.20;;
20122;SDS011;10222;50.848;4.336;2023-02-15T09:35:15;32.37;;;13.87;;
20122;SDS011;10222;50.848;4.336;2023-02-15T09:37:41;26.93;;;12.53;;
20122;SDS011;10222;50.848;4.336;2023-02-15T09:40:10;27.43;;;13.33;;
20122;SDS011;10222;50.848;4.336;2023-02-15T09:42:47;32.40;;;14.23;;
20122;SDS011;10222;50.848;4.336;2023-02-15T09:47:58;27.50;;;13.43;;
20122;SDS011;10222;50.848;4.336;2023-02-15T09:50:33;24.47;;;11.90;;
20122;SDS011;10222;50.848;4.336;2023-02-15T10:09:12;28.53;;;11.57;;
20122;SDS011;10222;50.848;4.336;2023-02-15T10:27:26;20.37;;;10.83;;
20122;SDS011;10222;50.848;4.336;2023-02-15T10:30:02;23.63;;;12.00;;
20122;SDS011;10222;50.848;4.336;2023-02-15T10:32:33;26.33;;;12.03;;
20122;SDS011;10222;50.848;4.336;2023-02-15T10:45:23;22.43;;;10.20;;
20122;SDS011;10222;50.848;4.336;2023-02-15T10:55:49;23.03;;;11.10;;
20122;SDS011;10222;50.848;4.336;2023-02-15T11:04:01;19.23;;;9.80;;
20122;SDS011;10222;50.848;4.336;2023-02-15T11:06:19;23.03;;;10.13;;
20122;SDS011;10222;50.848;4.336;2023-02-15T11:08:50;21.33;;;10.50;;
20122;SDS011;10222;50.848;4.336;2023-02-15T11:11:22;25.33;;;10.73;;
20122;SDS011;10222;50.848;4.336;2023-02-15T11:13:51;22.90;;;10.20;;
20122;SDS011;10222;50.848;4.336;2023-02-15T11:16:23;23.30;;;11.13;;
20122;SDS011;10222;50.848;4.336;2023-02-15T11:19:34;22.07;;;9.77;;
20122;SDS011;10222;50.848;4.336;2023-02-15T11:21:47;23.53;;;11.03;;
20122;SDS011;10222;50.848;4.336;2023-02-15T11:24:16;23.77;;;10.13;;
20122;SDS011;10222;50.848;4.336;2023-02-15T11:31:51;23.00;;;10.77;;
20122;SDS011;10222;50.848;4.336;2023-02-15T11:34:33;26.27;;;10.33;;
20122;SDS011;10222;50.848;4.336;2023-02-15T11:37:10;23.00;;;11.00;;
20122;SDS011;10222;50.848;4.336;2023-02-15T11:39:38;24.43;;;10.93;;
20122;SDS011;10222;50.848;4.336;2023-02-15T11:42:12;24.10;;;11.30;;
20122;SDS011;10222;50.848;4.336;2023-02-15T11:45:04;21.60;;;10.57;;
20122;SDS011;10222;50.848;4.336;2023-02-15T11:47:26;27.90;;;12.17;;
20122;SDS011;10222;50.848;4.336;2023-02-15T11:49:53;21.50;;;11.00;;
20122;SDS011;10222;50.848;4.336;2023-02-15T11:52:20;24.57;;;10.90;;
20122;SDS011;10222;50.848;4.336;2023-02-15T11:54:48;25.33;;;12.10;;
20122;SDS011;10222;50.848;4.336;2023-02-15T11:57:49;25.47;;;11.63;;
20122;SDS011;10222;50.848;4.336;2023-02-15T12:02:38;27.67;;;12.23;;
20122;SDS011;10222;50.848;4.336;2023-02-15T12:05:14;29.47;;;12.10;;
20122;SDS011;10222;50.848;4.336;2023-02-15T12:07:46;25.67;;;13.33;;
20122;SDS011;10222;50.848;4.336;2023-02-15T12:13:19;23.33;;;12.20;;
20122;SDS011;10222;50.848;4.336;2023-02-15T12:15:46;25.97;;;11.77;;
20122;SDS011;10222;50.848;4.336;2023-02-15T12:18:18;22.80;;;11.53;;
20122;SDS011;10222;50.848;4.336;2023-02-15T12:20:45;22.00;;;11.23;;
20122;SDS011;10222;50.848;4.336;2023-02-15T12:23:12;27.90;;;12.33;;
20122;SDS011;10222;50.848;4.336;2023-02-15T12:25:51;23.83;;;12.30;;
20122;SDS011;10222;50.848;4.336;2023-02-15T12:28:32;23.20;;;12.07;;
20122;SDS011;10222;50.848;4.336;2023-02-15T12:30:59;26.23;;;11.63;;
20122;SDS011;10222;50.848;4.336;2023-02-15T12:33:49;26.87;;;12.33;;
20122;SDS011;10222;50.848;4.336;2023-02-15T12:36:17;30.60;;;12.47;;
20122;SDS011;10222;50.848;4.336;2023-02-15T12:38:43;30.60;;;12.53;;
20122;SDS011;10222;50.848;4.336;2023-02-15T12:41:27;29.83;;;12.87;;
20122;SDS011;10222;50.848;4.336;2023-02-15T12:44:04;29.87;;;13.43;;
20122;SDS011;10222;50.848;4.336;2023-02-15T12:46:31;25.37;;;13.70;;
20122;SDS011;10222;50.848;4.336;2023-02-15T12:51:42;29.33;;;14.27;;
20122;SDS011;10222;50.848;4.336;2023-02-15T12:56:43;23.33;;;13.00;;
20122;SDS011;10222;50.848;4.336;2023-02-15T12:59:12;28.80;;;13.67;;
20122;SDS011;10222;50.848;4.336;2023-02-15T13:01:39;27.90;;;12.60;;
20122;SDS011;10222;50.848;4.336;2023-02-15T13:04:13;28.00;;;13.23;;
20122;SDS011;10222;50.848;4.336;2023-02-15T13:06:46;30.83;;;14.00;;
20122;SDS011;10222;50.848;4.336;2023-02-15T13:11:45;27.77;;;12.77;;
20122;SDS011;10222;50.848;4.336;2023-02-15T13:14:30;32.70;;;14.57;;
20122;SDS011;10222;50.848;4.336;2023-02-15T13:16:57;26.60;;;12.80;;
20122;SDS011;10222;50.848;4.336;2023-02-15T13:19:29;27.47;;;13.83;;
20122;SDS011;10222;50.848;4.336;2023-02-15T13:21:57;29.90;;;13.33;;
20122;SDS011;10222;50.848;4.336;2023-02-15T13:24:24;32.67;;;13.83;;
20122;SDS011;10222;50.848;4.336;2023-02-15T13:26:52;26.27;;;12.80;;
20122;SDS011;10222;50.848;4.336;2023-02-15T13:29:21;28.43;;;13.23;;
20122;SDS011;10222;50.848;4.336;2023-02-15T13:31:48;34.87;;;14.27;;
20122;SDS011;10222;50.848;4.336;2023-02-15T13:34:19;29.53;;;12.93;;
20122;SDS011;10222;50.848;4.336;2023-02-15T13:36:51;28.53;;;12.93;;
20122;SDS011;10222;50.848;4.336;2023-02-15T13:39:30;32.27;;;15.00;;
20122;SDS011;10222;50.848;4.336;2023-02-15T13:42:41;29.23;;;13.80;;
20122;SDS011;10222;50.848;4.336;2023-02-15T13:45:32;25.27;;;12.93;;
20122;SDS011;10222;50.848;4.336;2023-02-15T13:58:18;27.70;;;13.03;;
20122;SDS011;10222;50.848;4.336;2023-02-15T14:01:01;28.57;;;13.83;;
20122;SDS011;10222;50.848;4.336;2023-02-15T14:08:49;31.77;;;15.03;;
20122;SDS011;10222;50.848;4.336;2023-02-15T14:11:22;29.90;;;13.53;;
20122;SDS011;10222;50.848;4.336;2023-02-15T14:16:37;31.00;;;15.00;;
20122;SDS011;10222;50.848;4.336;2023-02-15T14:19:09;30.00;;;14.40;;
20122;SDS011;10222;50.848;4.336;2023-02-15T14:24:33;34.83;;;15.40;;
20122;SDS011;10222;50.848;4.336;2023-02-15T14:31:59;37.07;;;15.63;;
20122;SDS011;10222;50.848;4.336;2023-02-15T14:34:45;29.67;;;14.63;;
20122;SDS011;10222;50.848;4.336;2023-02-15T14:37:12;31.47;;;15.67;;
20122;SDS011;10222;50.848;4.336;2023-02-15T14:42:30;33.57;;;15.27;;
20122;SDS011;10222;50.848;4.336;2023-02-15T14:47:34;32.47;;;14.50;;
20122;SDS011;10222;50.848;4.336;2023-02-15T14:55:35;29.80;;;14.57;;
20122;SDS011;10222;50.848;4.336;2023-02-15T14:58:09;29.57;;;15.77;;
20122;SDS011;10222;50.848;4.336;2023-02-15T15:00:37;32.47;;;15.33;;
20122;SDS011;10222;50.848;4.336;2023-02-15T15:03:10;33.20;;;15.80;;
20122;SDS011;10222;50.848;4.336;2023-02-15T15:05:46;34.07;;;16.13;;
20122;SDS011;10222;50.848;4.336;2023-02-15T15:08:21;34.27;;;16.83;;
20122;SDS011;10222;50.848;4.336;2023-02-15T15:10:49;33.23;;;16.07;;
20122;SDS011;10222;50.848;4.336;2023-02-15T15:15:57;41.27;;;18.00;;
20122;SDS011;10222;50.848;4.336;2023-02-15T15:18:43;39.97;;;17.00;;
20122;SDS011;10222;50.848;4.336;2023-02-15T15:21:10;39.10;;;16.83;;
20122;SDS011;10222;50.848;4.336;2023-02-15T15:26:21;39.20;;;15.97;;
20122;SDS011;10222;50.848;4.336;2023-02-15T15:31:21;32.93;;;16.40;;
20122;SDS011;10222;50.848;4.336;2023-02-15T15:49:37;28.70;;;15.37;;
20122;SDS011;10222;50.848;4.336;2023-02-15T15:52:20;31.43;;;14.47;;
20122;SDS011;10222;50.848;4.336;2023-02-15T15:54:48;31.20;;;14.57;;
20122;SDS011;10222;50.848;4.336;2023-02-15T15:57:38;36.07;;;15.63;;
20122;SDS011;10222;50.848;4.336;2023-02-15T16:00:04;32.00;;;14.80;;
20122;SDS011;10222;50.848;4.336;2023-02-15T16:02:32;36.00;;;14.30;;
20122;SDS011;10222;50.848;4.336;2023-02-15T16:05:08;33.50;;;14.13;;
20122;SDS011;10222;50.848;4.336;2023-02-15T16:07:34;25.27;;;12.93;;
20122;SDS011;10222;50.848;4.336;2023-02-15T16:12:27;33.27;;;15.90;;
20122;SDS011;10222;50.848;4.336;2023-02-15T16:14:54;32.50;;;14.97;;
20122;SDS011;10222;50.848;4.336;2023-02-15T16:17:25;32.80;;;14.87;;
20122;SDS011;10222;50.848;4.336;2023-02-15T16:19:52;29.30;;;15.03;;
20122;SDS011;10222;50.848;4.336;2023-02-15T16:22:21;29.53;;;15.00;;
20122;SDS011;10222;50.848;4.336;2023-02-15T16:24:56;31.80;;;14.00;;
20122;SDS011;10222;50.848;4.336;2023-02-15T16:29:55;30.53;;;13.40;;
20122;SDS011;10222;50.848;4.336;2023-02-15T16:32:22;30.37;;;14.63;;
20122;SDS011;10222;50.848;4.336;2023-02-15T16:37:19;32.60;;;14.27;;
20122;SDS011;10222;50.848;4.336;2023-02-15T16:39:48;29.23;;;13.23;;
20122;SDS011;10222;50.848;4.336;2023-02-15T16:42:14;35.87;;;16.03;;
20122;SDS011;10222;50.848;4.336;2023-02-15T16:44:41;33.63;;;15.70;;
20122;SDS011;10222;50.848;4.336;2023-02-15T16:47:13;29.93;;;14.07;;
20122;SDS011;10222;50.848;4.336;2023-02-15T16:49:40;33.57;;;15.33;;
20122;SDS011;10222;50.848;4.336;2023-02-15T16:52:10;34.33;;;14.83;;
20122;SDS011;10222;50.848;4.336;2023-02-15T16:54:40;34.10;;;15.73;;
20122;SDS011;10222;50.848;4.336;2023-02-15T16:57:14;35.63;;;17.07;;
20122;SDS011;10222;50.848;4.336;2023-02-15T16:59:41;37.27;;;17.17;;
20122;SDS011;10222;50.848;4.336;2023-02-15T17:02:12;26.27;;;13.80;;
20122;SDS011;10222;50.848;4.336;2023-02-15T17:04:40;38.40;;;15.40;;
20122;SDS011;10222;50.848;4.336;2023-02-15T17:07:17;33.90;;;17.10;;
20122;SDS011;10222;50.848;4.336;2023-02-15T17:09:51;37.40;;;17.77;;
20122;SDS011;10222;50.848;4.336;2023-02-15T17:15:02;42.20;;;17.70;;
20122;SDS011;10222;50.848;4.336;2023-02-15T17:17:28;39.97;;;18.10;;
20122;SDS011;10222;50.848;4.336;2023-02-15T17:19:56;35.23;;;17.73;;
20122;SDS011;10222;50.848;4.336;2023-02-15T17:22:23;38.07;;;18.27;;
20122;SDS011;10222;50.848;4.336;2023-02-15T17:24:50;34.30;;;17.17;;
20122;SDS011;10222;50.848;4.336;2023-02-15T17:27:24;36.83;;;15.90;;
20122;SDS011;10222;50.848;4.336;2023-02-15T17:29:51;38.87;;;16.53;;
20122;SDS011;10222;50.848;4.336;2023-02-15T17:32:22;35.33;;;17.03;;
20122;SDS011;10222;50.848;4.336;2023-02-15T17:37:25;35.60;;;15.43;;
20122;SDS011;10222;50.848;4.336;2023-02-15T17:39:52;35.57;;;15.23;;
20122;SDS011;10222;50.848;4.336;2023-02-15T17:42:18;38.33;;;16.13;;
20122;SDS011;10222;50.848;4.336;2023-02-15T17:44:45;34.73;;;16.00;;
20122;SDS011;10222;50.848;4.336;2023-02-15T17:47:18;28.83;;;14.60;;
20122;SDS011;10222;50.848;4.336;2023-02-15T17:49:46;31.70;;;15.97;;
20122;SDS011;10222;50.848;4.336;2023-02-15T17:52:14;37.67;;;17.40;;
20122;SDS011;10222;50.848;4.336;2023-02-15T17:54:41;27.73;;;14.57;;
20122;SDS011;10222;50.848;4.336;2023-02-15T17:57:26;30.03;;;14.57;;
20122;SDS011;10222;50.848;4.336;2023-02-15T17:59:53;31.17;;;15.60;;
20122;SDS011;10222;50.848;4.336;2023-02-15T18:02:39;29.83;;;15.47;;
20122;SDS011;10222;50.848;4.336;2023-02-15T18:05:25;36.63;;;15.30;;
20122;SDS011;10222;50.848;4.336;2023-02-15T18:08:18;34.00;;;15.83;;
20122;SDS011;10222;50.848;4.336;2023-02-15T18:11:08;29.67;;;14.53;;
20122;SDS011;10222;50.848;4.336;2023-02-15T18:13:53;34.27;;;16.33;;
20122;SDS011;10222;50.848;4.336;2023-02-15T18:16:22;33.73;;;16.23;;
20122;SDS011;10222;50.848;4.336;2023-02-15T18:18:50;38.20;;;16.47;;
20122;SDS011;10222;50.848;4.336;2023-02-15T18:21:16;30.03;;;14.17;;
20122;SDS011;10222;50.848;4.336;2023-02-15T18:23:42;34.57;;;14.97;;
20122;SDS011;10222;50.848;4.336;2023-02-15T18:26:09;29.67;;;14.43;;